createdAt,value
2022-11-05T00:00:36.680Z,3.75
2022-11-05T00:03:03.648Z,3.40
2022-11-05T00:05:31.082Z,3.80
2022-11-05T00:07:59.763Z,3.47
2022-11-05T00:10:28.755Z,3.73
2022-11-05T00:12:57.692Z,3.70
2022-11-05T00:15:24.316Z,3.50
2022-11-05T00:17:52.599Z,3.78
2022-11-05T00:20:19.219Z,3.80
2022-11-05T00:22:45.816Z,3.88
2022-11-05T00:25:15.056Z,4.47
2022-11-05T00:27:41.769Z,3.97
2022-11-05T00:30:09.498Z,4.28
2022-11-05T00:32:36.224Z,3.97
2022-11-05T00:35:05.160Z,4.00
2022-11-05T00:37:31.872Z,3.45
2022-11-05T00:39:58.543Z,3.67
2022-11-05T00:42:25.228Z,4.10
2022-11-05T00:44:51.867Z,3.50
2022-11-05T00:47:18.538Z,3.60
2022-11-05T00:49:45.171Z,3.65
2022-11-05T00:52:13.244Z,3.85
2022-11-05T00:54:39.877Z,4.05
2022-11-05T00:57:06.560Z,3.35
2022-11-05T00:59:33.182Z,3.75
2022-11-05T01:01:59.956Z,3.70
2022-11-05T01:04:26.706Z,3.28
2022-11-05T01:06:53.369Z,4.18
2022-11-05T01:09:21.432Z,3.47
2022-11-05T01:11:48.085Z,3.67
2022-11-05T01:14:15.401Z,3.58
2022-11-05T01:16:42.920Z,4.22
2022-11-05T01:19:11.395Z,3.95
2022-11-05T01:21:38.191Z,3.78
2022-11-05T01:24:05.356Z,3.70
2022-11-05T01:26:33.472Z,3.60
2022-11-05T01:29:00.233Z,3.20
2022-11-05T01:31:27.072Z,3.88
2022-11-05T01:33:53.822Z,4.15
2022-11-05T01:36:20.734Z,3.92
2022-11-05T01:38:47.487Z,4.05
2022-11-05T01:41:14.193Z,3.67
2022-11-05T01:43:50.392Z,4.00
2022-11-05T01:46:19.706Z,3.85
2022-11-05T01:48:51.304Z,3.60
2022-11-05T01:51:22.501Z,3.90
2022-11-05T01:53:52.101Z,4.13
2022-11-05T01:56:25.040Z,4.18
2022-11-05T01:58:56.737Z,3.58
2022-11-05T02:01:23.817Z,3.80
2022-11-05T02:03:55.042Z,3.50
2022-11-05T02:06:21.906Z,3.90
2022-11-05T02:08:55.860Z,3.83
2022-11-05T02:11:22.750Z,4.13
2022-11-05T02:13:50.131Z,3.78
2022-11-05T02:16:27.525Z,4.20
2022-11-05T02:19:02.044Z,4.80
2022-11-05T02:21:53.089Z,4.80
2022-11-05T02:24:53.637Z,4.22
2022-11-05T02:27:27.573Z,5.43
2022-11-05T02:30:07.234Z,5.20
2022-11-05T02:32:54.584Z,5.25
2022-11-05T02:35:34.873Z,5.30
2022-11-05T02:38:08.354Z,4.78
2022-11-05T02:40:44.624Z,4.63
2022-11-05T02:43:21.384Z,4.00
2022-11-05T02:46:00.009Z,4.75
2022-11-05T02:48:35.847Z,3.87
2022-11-05T02:51:12.112Z,3.50
2022-11-05T02:53:45.205Z,3.75
2022-11-05T02:56:18.086Z,3.50
2022-11-05T02:58:44.938Z,3.53
2022-11-05T03:01:12.220Z,3.20
2022-11-05T03:03:42.606Z,3.50
2022-11-05T03:06:25.250Z,3.60
2022-11-05T03:09:10.607Z,3.28
2022-11-05T03:11:45.855Z,3.42
2022-11-05T03:14:22.484Z,3.50
2022-11-05T03:16:58.420Z,3.33
2022-11-05T03:19:35.196Z,3.47
2022-11-05T03:22:08.037Z,3.50
2022-11-05T03:24:38.535Z,3.15
2022-11-05T03:27:09.882Z,4.00
2022-11-05T03:29:42.399Z,3.50
2022-11-05T03:32:10.934Z,3.67
2022-11-05T03:34:45.567Z,3.80
2022-11-05T03:37:12.704Z,3.40
2022-11-05T03:39:43.596Z,3.47
2022-11-05T03:42:15.494Z,3.13
2022-11-05T03:44:46.126Z,3.47
2022-11-05T03:47:19.464Z,2.97
2022-11-05T03:49:55.678Z,3.17
2022-11-05T03:52:48.731Z,3.22
2022-11-05T03:55:16.125Z,3.17
2022-11-05T03:57:50.571Z,2.88
2022-11-05T04:00:17.211Z,3.00
2022-11-05T04:02:44.013Z,3.30
2022-11-05T04:05:12.507Z,3.35
2022-11-05T04:07:39.141Z,3.53
2022-11-05T04:10:06.400Z,3.47
2022-11-05T04:12:33.321Z,3.90
2022-11-05T04:15:00.119Z,3.15
2022-11-05T04:17:26.698Z,2.95
2022-11-05T04:19:53.362Z,3.20
2022-11-05T04:22:21.772Z,2.97
2022-11-05T04:24:48.434Z,2.50
2022-11-05T04:27:15.069Z,3.22
2022-11-05T04:29:41.718Z,3.25
2022-11-05T04:32:08.394Z,2.80
2022-11-05T04:34:35.056Z,3.03
2022-11-05T04:37:01.809Z,2.78
2022-11-05T04:39:30.020Z,2.70
2022-11-05T04:41:56.698Z,2.67
2022-11-05T04:44:23.382Z,2.33
2022-11-05T04:46:50.047Z,2.45
2022-11-05T04:49:16.682Z,2.40
2022-11-05T04:51:43.850Z,2.30
2022-11-05T04:54:10.721Z,2.78
2022-11-05T04:56:38.791Z,2.63
2022-11-05T04:59:05.512Z,2.83
2022-11-05T05:01:32.490Z,2.38
2022-11-05T05:03:59.219Z,2.25
2022-11-05T05:06:25.933Z,2.53
2022-11-05T05:08:52.577Z,2.63
2022-11-05T05:11:20.881Z,2.47
2022-11-05T05:13:49.390Z,2.10
2022-11-05T05:16:19.353Z,2.03
2022-11-05T05:18:46.685Z,2.33
2022-11-05T05:21:13.427Z,2.42
2022-11-05T05:23:40.072Z,2.08
2022-11-05T05:26:06.817Z,2.05
2022-11-05T05:28:33.617Z,2.00
2022-11-05T05:31:02.106Z,1.92
2022-11-05T05:33:28.809Z,2.50
2022-11-05T05:35:57.684Z,2.47
2022-11-05T05:38:24.512Z,2.13
2022-11-05T05:40:51.910Z,2.10
2022-11-05T05:43:18.583Z,2.20
2022-11-05T05:45:45.148Z,2.40
2022-11-05T05:48:13.179Z,2.25
2022-11-05T05:50:39.829Z,1.95
2022-11-05T05:53:06.473Z,2.75
2022-11-05T05:55:33.364Z,2.20
2022-11-05T05:57:59.998Z,2.00
2022-11-05T06:00:26.709Z,2.13
2022-11-05T06:02:55.740Z,2.40
2022-11-05T06:05:23.803Z,2.47
2022-11-05T06:07:55.817Z,2.40
2022-11-05T06:10:22.602Z,2.20
2022-11-05T06:12:49.385Z,2.60
2022-11-05T06:15:16.287Z,2.45
2022-11-05T06:17:43.240Z,2.50
2022-11-05T06:20:10.912Z,2.80
2022-11-05T06:22:39.493Z,2.50
2022-11-05T06:25:07.240Z,2.37
2022-11-05T06:27:34.770Z,2.08
2022-11-05T06:30:01.502Z,2.33
2022-11-05T06:32:28.124Z,2.25
2022-11-05T06:34:54.758Z,2.40
2022-11-05T06:37:21.435Z,2.13
2022-11-05T06:39:49.518Z,2.08
2022-11-05T06:42:18.774Z,2.45
2022-11-05T06:44:46.309Z,1.95
2022-11-05T06:47:13.069Z,2.28
2022-11-05T06:49:39.732Z,2.30
2022-11-05T06:52:06.471Z,2.47
2022-11-05T06:54:33.119Z,2.42
2022-11-05T06:57:01.256Z,2.45
2022-11-05T06:59:27.930Z,2.08
2022-11-05T07:01:54.631Z,2.10
2022-11-05T07:04:21.500Z,2.10
2022-11-05T07:06:48.319Z,2.25
2022-11-05T07:09:15.101Z,2.38
2022-11-05T07:11:41.992Z,2.58
2022-11-05T07:14:10.362Z,2.53
2022-11-05T07:16:37.050Z,2.50
2022-11-05T07:19:03.744Z,2.70
2022-11-05T07:21:30.435Z,2.17
2022-11-05T07:23:57.156Z,2.28
2022-11-05T07:26:23.889Z,2.50
2022-11-05T07:28:50.553Z,2.35
2022-11-05T07:31:18.683Z,2.08
2022-11-05T07:33:45.398Z,1.90
2022-11-05T07:36:12.207Z,2.45
2022-11-05T07:38:38.970Z,2.10
2022-11-05T07:41:05.702Z,2.45
2022-11-05T07:43:32.510Z,2.05
2022-11-05T07:46:00.284Z,2.13
2022-11-05T07:48:31.014Z,2.60
2022-11-05T07:50:57.713Z,2.30
2022-11-05T07:53:24.379Z,2.72
2022-11-05T07:55:51.058Z,2.85
2022-11-05T07:58:17.800Z,2.10
2022-11-05T08:00:44.566Z,2.17
2022-11-05T08:03:14.069Z,2.10
2022-11-05T08:05:44.211Z,2.05
2022-11-05T08:08:12.805Z,2.05
2022-11-05T08:10:40.497Z,2.10
2022-11-05T08:13:09.060Z,2.38
2022-11-05T08:15:36.247Z,2.42
2022-11-05T08:18:05.174Z,2.20
2022-11-05T08:20:32.771Z,2.40
2022-11-05T08:23:01.247Z,2.40
2022-11-05T08:25:28.129Z,2.63
2022-11-05T08:27:56.063Z,3.00
2022-11-05T08:30:22.985Z,4.03
2022-11-05T08:32:49.639Z,4.63
2022-11-05T08:35:16.531Z,6.95
2022-11-05T08:37:43.333Z,3.20
2022-11-05T08:40:12.344Z,2.90
2022-11-05T08:42:39.086Z,2.40
2022-11-05T08:45:06.829Z,2.65
2022-11-05T08:47:33.668Z,2.95
2022-11-05T08:50:02.398Z,2.80
2022-11-05T08:52:29.059Z,3.65
2022-11-05T08:55:03.946Z,3.40
2022-11-05T08:57:32.298Z,3.72
2022-11-05T08:59:58.968Z,3.88
2022-11-05T09:02:25.718Z,3.72
2022-11-05T09:04:52.500Z,3.63
2022-11-05T09:07:19.144Z,3.95
2022-11-05T09:09:45.859Z,3.90
2022-11-05T09:12:13.247Z,3.72
2022-11-05T09:14:41.370Z,3.50
2022-11-05T09:17:14.525Z,3.05
2022-11-05T09:19:47.549Z,3.30
2022-11-05T09:22:52.923Z,3.03
2022-11-05T09:25:29.713Z,3.60
2022-11-05T09:28:08.326Z,3.67
2022-11-05T09:30:40.267Z,3.40
2022-11-05T09:33:16.994Z,3.50
2022-11-05T09:35:49.838Z,3.10
2022-11-05T09:38:16.459Z,3.08
2022-11-05T09:41:04.302Z,3.08
2022-11-05T09:43:36.663Z,3.15
2022-11-05T09:46:11.135Z,2.90
2022-11-05T09:48:39.192Z,3.40
2022-11-05T09:51:07.132Z,3.17
2022-11-05T09:53:41.781Z,2.80
2022-11-05T09:56:20.363Z,3.03
2022-11-05T09:58:56.437Z,3.60
2022-11-05T10:01:35.839Z,2.90
2022-11-05T10:06:46.795Z,3.10
2022-11-05T10:09:19.965Z,3.13
2022-11-05T10:11:50.959Z,3.05
2022-11-05T10:14:22.933Z,2.65
2022-11-05T10:16:56.425Z,2.45
2022-11-05T10:19:27.013Z,2.20
2022-11-05T10:22:06.528Z,2.90
2022-11-05T10:24:35.146Z,3.22
2022-11-05T10:27:03.079Z,3.75
2022-11-05T10:29:34.951Z,3.25
2022-11-05T10:32:05.842Z,4.13
2022-11-05T10:34:36.018Z,4.80
2022-11-05T10:37:03.153Z,4.75
2022-11-05T10:39:32.759Z,4.50
2022-11-05T10:42:16.088Z,4.50
2022-11-05T10:44:47.131Z,5.13
2022-11-05T10:47:47.053Z,4.57
2022-11-05T10:50:18.116Z,4.60
2022-11-05T10:52:55.698Z,3.95
2022-11-05T10:55:36.878Z,4.00
2022-11-05T10:58:18.261Z,3.90
2022-11-05T11:00:46.425Z,4.32
2022-11-05T11:03:35.009Z,3.92
2022-11-05T11:06:04.227Z,3.73
2022-11-05T11:08:35.130Z,3.65
2022-11-05T11:11:24.622Z,4.25
2022-11-05T11:14:01.089Z,4.10
2022-11-05T11:16:33.435Z,4.28
2022-11-05T11:19:22.467Z,4.55
2022-11-05T11:22:18.206Z,4.63
2022-11-05T11:24:47.273Z,4.10
2022-11-05T11:27:16.795Z,4.43
2022-11-05T11:32:18.461Z,3.83
2022-11-05T11:34:48.837Z,3.60
2022-11-05T11:37:22.856Z,4.07
2022-11-05T11:39:56.405Z,3.45
2022-11-05T11:42:29.195Z,4.05
2022-11-05T11:44:58.528Z,3.78
2022-11-05T11:47:28.733Z,4.00
2022-11-05T11:50:02.684Z,4.22
2022-11-05T11:52:32.672Z,4.43
2022-11-05T11:55:23.405Z,4.15
2022-11-05T11:57:55.201Z,4.80
2022-11-05T12:00:24.821Z,5.13
2022-11-05T12:06:16.610Z,4.35
2022-11-05T12:08:59.320Z,4.40
2022-11-05T12:11:39.753Z,4.03
2022-11-05T12:14:20.121Z,4.85
2022-11-05T12:17:09.908Z,5.32
2022-11-05T12:19:53.131Z,5.10
2022-11-05T12:22:29.405Z,5.50
2022-11-05T12:25:11.200Z,5.43
2022-11-05T12:27:49.253Z,5.15
2022-11-05T12:30:17.832Z,4.63
2022-11-05T12:33:04.285Z,4.87
2022-11-05T12:35:47.360Z,4.65
2022-11-05T12:38:26.433Z,6.68
2022-11-05T12:41:10.784Z,5.65
2022-11-05T12:43:50.696Z,6.15
2022-11-05T12:46:29.058Z,5.35
2022-11-05T12:49:20.932Z,6.38
2022-11-05T12:52:02.454Z,5.95
2022-11-05T12:54:43.885Z,6.57
2022-11-05T12:57:14.014Z,6.35
2022-11-05T12:59:47.298Z,6.68
2022-11-05T13:02:22.095Z,7.05
2022-11-05T13:04:53.377Z,7.55
2022-11-05T13:07:27.883Z,7.75
2022-11-05T13:09:59.566Z,7.25
2022-11-05T13:12:35.240Z,7.65
2022-11-05T13:15:07.880Z,7.10
2022-11-05T13:17:42.061Z,7.57
2022-11-05T13:20:17.788Z,7.22
2022-11-05T13:22:46.605Z,7.03
2022-11-05T13:25:20.115Z,7.65
2022-11-05T13:27:58.350Z,7.50
2022-11-05T13:30:29.544Z,8.15
2022-11-05T13:33:04.961Z,7.72
2022-11-05T13:35:41.486Z,6.95
2022-11-05T13:38:14.909Z,7.47
2022-11-05T13:40:57.491Z,7.05
2022-11-05T13:43:41.340Z,6.40
2022-11-05T13:46:22.538Z,6.88
2022-11-05T13:49:05.358Z,6.45
2022-11-05T13:51:54.001Z,6.90
2022-11-05T13:54:57.520Z,6.88
2022-11-05T13:57:50.397Z,7.22
2022-11-05T14:00:22.043Z,6.45
2022-11-05T14:02:53.081Z,6.25
2022-11-05T14:05:27.686Z,7.05
2022-11-05T14:07:55.683Z,6.80
2022-11-05T14:10:31.359Z,7.18
2022-11-05T14:13:14.075Z,6.43
2022-11-05T14:15:57.305Z,6.80
2022-11-05T14:18:43.295Z,6.80
2022-11-05T14:21:49.207Z,6.32
2022-11-05T14:24:26.567Z,7.15
2022-11-05T14:27:30.703Z,6.18
2022-11-05T14:30:30.427Z,7.20
2022-11-05T14:33:13.934Z,7.28
2022-11-05T14:35:43.388Z,6.22
2022-11-05T14:38:20.313Z,7.55
2022-11-05T14:40:47.897Z,7.25
2022-11-05T14:43:21.853Z,7.47
2022-11-05T14:45:57.188Z,6.63
2022-11-05T14:48:36.477Z,7.40
2022-11-05T14:51:16.650Z,6.90
2022-11-05T14:53:43.467Z,7.13
2022-11-05T14:56:14.040Z,6.75
2022-11-05T14:58:42.679Z,6.65
2022-11-05T15:01:30.077Z,7.57
2022-11-05T15:04:05.849Z,7.15
2022-11-05T15:06:34.407Z,7.38
2022-11-05T15:09:15.490Z,7.50
2022-11-05T15:11:49.993Z,6.75
2022-11-05T15:14:22.761Z,6.85
2022-11-05T15:17:17.264Z,7.93
2022-11-05T15:19:46.938Z,7.00
2022-11-05T15:22:25.840Z,6.13
2022-11-05T15:24:52.931Z,6.82
2022-11-05T15:27:27.743Z,5.60
2022-11-05T15:30:05.029Z,6.15
2022-11-05T15:32:37.348Z,5.53
2022-11-05T15:35:20.456Z,6.28
2022-11-05T15:37:54.577Z,6.00
2022-11-05T15:40:26.350Z,5.75
2022-11-05T15:43:15.234Z,5.45
2022-11-05T15:45:42.317Z,6.13
2022-11-05T15:48:18.164Z,5.85
2022-11-05T15:50:48.816Z,6.18
2022-11-05T15:56:26.297Z,6.82
2022-11-05T15:58:55.796Z,6.85
2022-11-05T16:04:21.628Z,6.65
2022-11-05T16:06:54.569Z,5.82
2022-11-05T16:09:23.478Z,6.18
2022-11-05T16:12:14.065Z,5.97
2022-11-05T16:15:01.141Z,6.03
2022-11-05T16:17:32.423Z,6.03
2022-11-05T16:19:59.338Z,6.10
2022-11-05T16:22:44.726Z,5.80
2022-11-05T16:25:22.711Z,10.82
2022-11-05T16:27:51.669Z,6.88
2022-11-05T16:30:19.829Z,6.45
2022-11-05T16:33:13.574Z,6.05
2022-11-05T16:35:47.814Z,6.15
2022-11-05T16:38:17.786Z,5.90
2022-11-05T16:40:44.473Z,6.00
2022-11-05T16:43:19.140Z,6.72
2022-11-05T16:45:53.146Z,6.25
2022-11-05T16:48:20.039Z,5.90
2022-11-05T16:50:47.742Z,6.00
2022-11-05T16:53:19.118Z,6.38
2022-11-05T16:55:46.559Z,6.97
2022-11-05T16:58:20.634Z,7.15
2022-11-05T17:00:48.557Z,6.78
2022-11-05T17:03:15.407Z,6.28
2022-11-05T17:05:42.413Z,6.45
2022-11-05T17:08:09.354Z,7.22
2022-11-05T17:10:37.595Z,7.03
2022-11-05T17:13:04.260Z,6.72
2022-11-05T17:15:32.849Z,6.40
2022-11-05T17:17:59.633Z,6.70
2022-11-05T17:20:36.512Z,6.65
2022-11-05T17:23:07.266Z,7.03
2022-11-05T17:25:37.098Z,11.13
2022-11-05T17:28:06.044Z,14.32
2022-11-05T17:30:35.109Z,13.57
2022-11-05T17:33:01.965Z,13.48
2022-11-05T17:35:54.355Z,21.25
2022-11-05T17:38:21.898Z,20.30
2022-11-05T17:40:57.083Z,17.92
2022-11-05T17:43:25.944Z,14.93
2022-11-05T17:45:53.537Z,11.70
2022-11-05T17:48:21.005Z,12.52
2022-11-05T17:50:49.865Z,15.40
2022-11-05T17:53:28.708Z,14.93
2022-11-05T17:55:56.067Z,16.90
2022-11-05T17:58:22.807Z,17.23
2022-11-05T18:01:00.030Z,16.40
2022-11-05T18:03:28.674Z,16.77
2022-11-05T18:06:01.042Z,16.30
2022-11-05T18:08:27.787Z,19.20
2022-11-05T18:10:54.528Z,20.40
2022-11-05T18:13:21.301Z,19.73
2022-11-05T18:15:51.733Z,23.30
2022-11-05T18:18:20.559Z,22.25
2022-11-05T18:20:50.553Z,20.38
2022-11-05T18:23:21.668Z,21.10
2022-11-05T18:25:51.415Z,17.15
2022-11-05T18:28:22.383Z,19.55
2022-11-05T18:30:51.313Z,15.48
2022-11-05T18:33:19.696Z,17.67
2022-11-05T18:35:48.113Z,21.90
2022-11-05T18:38:14.864Z,23.48
2022-11-05T18:40:51.875Z,20.20
2022-11-05T18:43:21.673Z,23.67
2022-11-05T18:45:54.903Z,22.27
2022-11-05T18:48:23.289Z,21.48
2022-11-05T18:50:50.010Z,22.38
2022-11-05T18:53:24.915Z,26.00
2022-11-05T18:55:54.319Z,32.70
2022-11-05T18:58:21.366Z,34.13
2022-11-05T19:01:06.437Z,17.92
2022-11-05T19:03:34.963Z,18.48
2022-11-05T19:06:03.556Z,25.75
2022-11-05T19:08:33.521Z,28.20
2022-11-05T19:11:06.737Z,18.00
2022-11-05T19:13:38.103Z,10.23
2022-11-05T19:16:07.643Z,10.85
2022-11-05T19:21:20.946Z,6.07
2022-11-05T19:23:48.210Z,5.70
2022-11-05T19:26:17.284Z,5.60
2022-11-05T19:28:47.255Z,5.43
2022-11-05T19:31:18.664Z,6.95
2022-11-05T19:33:51.259Z,6.78
2022-11-05T19:36:20.310Z,4.57
2022-11-05T19:38:49.158Z,4.95
2022-11-05T19:41:19.189Z,4.93
2022-11-05T19:43:46.017Z,4.85
2022-11-05T19:46:15.782Z,5.28
2022-11-05T19:48:43.549Z,5.45
2022-11-05T19:51:16.408Z,5.53
2022-11-05T19:53:52.761Z,3.72
2022-11-05T19:56:21.341Z,3.20
2022-11-05T19:58:48.316Z,3.72
2022-11-05T20:01:20.443Z,3.65
2022-11-05T20:03:50.447Z,3.50
2022-11-05T20:06:21.514Z,3.60
2022-11-05T20:09:19.525Z,3.05
2022-11-05T20:11:36.203Z,2.97
2022-11-05T20:14:03.728Z,3.15
2022-11-05T20:16:32.213Z,3.42
2022-11-05T20:18:59.088Z,3.28
2022-11-05T20:21:27.278Z,3.25
2022-11-05T20:23:56.152Z,2.85
2022-11-05T20:26:23.026Z,2.60
2022-11-05T20:28:49.846Z,2.90
2022-11-05T20:31:32.802Z,2.50
2022-11-05T20:34:14.094Z,2.90
2022-11-05T20:36:43.358Z,2.88
2022-11-05T20:39:10.768Z,2.55
2022-11-05T20:41:44.667Z,3.08
2022-11-05T20:44:11.477Z,2.47
2022-11-05T20:46:38.539Z,2.50
2022-11-05T20:49:25.009Z,2.70
2022-11-05T20:52:07.330Z,2.70
2022-11-05T20:55:11.244Z,2.78
2022-11-05T20:57:38.104Z,2.42
2022-11-05T21:00:06.542Z,2.70
2022-11-05T21:02:34.261Z,2.67
2022-11-05T21:05:01.409Z,2.90
2022-11-05T21:07:29.734Z,2.42
2022-11-05T21:09:56.866Z,2.53
2022-11-05T21:12:23.723Z,2.38
2022-11-05T21:14:52.414Z,2.80
2022-11-05T21:17:19.307Z,2.30
2022-11-05T21:19:46.114Z,2.60
2022-11-05T21:22:49.240Z,2.58
2022-11-05T21:25:29.081Z,2.72
2022-11-05T21:28:19.679Z,3.13
2022-11-05T21:30:54.583Z,2.78
2022-11-05T21:33:26.293Z,2.75
2022-11-05T21:35:53.044Z,2.42
2022-11-05T21:38:21.151Z,2.45
2022-11-05T21:40:47.880Z,2.97
2022-11-05T21:43:14.672Z,2.60
2022-11-05T21:45:42.839Z,2.45
2022-11-05T21:48:10.287Z,2.58
2022-11-05T21:50:38.843Z,2.53
2022-11-05T21:53:05.607Z,2.55
2022-11-05T21:55:33.918Z,2.60
2022-11-05T21:58:04.771Z,2.50
2022-11-05T22:00:31.742Z,2.50
2022-11-05T22:02:58.832Z,2.53
2022-11-05T22:05:26.060Z,2.40
2022-11-05T22:07:53.159Z,2.40
2022-11-05T22:10:20.282Z,2.78
2022-11-05T22:12:48.768Z,2.50
2022-11-05T22:15:15.986Z,2.22
2022-11-05T22:17:47.233Z,2.85
2022-11-05T22:20:15.224Z,2.53
2022-11-05T22:22:42.388Z,2.63
2022-11-05T22:25:09.705Z,2.88
2022-11-05T22:27:36.942Z,2.53
2022-11-05T22:30:06.736Z,2.80
2022-11-05T22:32:34.201Z,2.60
2022-11-05T22:35:01.292Z,2.90
2022-11-05T22:37:28.168Z,2.50
2022-11-05T22:39:55.568Z,2.95
2022-11-05T22:42:22.771Z,2.60
2022-11-05T22:44:49.849Z,2.75
2022-11-05T22:47:18.360Z,2.72
2022-11-05T22:49:45.493Z,3.22
2022-11-05T22:52:12.484Z,3.00
2022-11-05T22:54:39.691Z,2.63
2022-11-05T22:57:16.171Z,2.88
2022-11-05T22:59:42.858Z,3.28
2022-11-05T23:02:10.195Z,3.30
2022-11-05T23:04:38.821Z,2.95
2022-11-05T23:07:05.634Z,3.15
2022-11-05T23:09:34.574Z,3.10
2022-11-05T23:12:02.199Z,3.80
2022-11-05T23:14:29.681Z,3.35
2022-11-05T23:16:56.344Z,3.50
2022-11-05T23:19:23.579Z,2.65
2022-11-05T23:21:51.779Z,3.88
2022-11-05T23:24:18.502Z,3.03
2022-11-05T23:26:45.257Z,3.22
2022-11-05T23:29:11.925Z,3.08
2022-11-05T23:31:38.700Z,2.92
2022-11-05T23:34:05.451Z,3.20
2022-11-05T23:36:32.273Z,3.13
2022-11-05T23:39:00.450Z,2.72
2022-11-05T23:41:27.620Z,3.33
2022-11-05T23:43:54.659Z,2.72
2022-11-05T23:46:21.413Z,2.72
2022-11-05T23:48:48.159Z,2.50
2022-11-05T23:51:14.868Z,2.40
2022-11-05T23:53:41.518Z,2.17
2022-11-05T23:56:12.359Z,2.60
2022-11-05T23:58:40.410Z,2.50
